Time;durP1;ratioP1;P1;durP2;ratioP2;P2;SDS_P1;SDS_P2;PMS_P1;PMS_P2;Temp;Humidity;BMP_temperature;BMP_pressure;BME280_temperature;BME280_humidity;BME280_pressure;Samples;Min_cycle;Max_cycle;Signal;HPM_P1;HPM_P2
2022/05/27 00:01:08;;;;;;;2.88;1.10;;;22.40;99.90;;;;;;5022139;23;20056;-49
2022/05/27 00:03:35;;;;;;;2.10;0.77;;;22.40;99.90;;;;;;5014480;28;20070;-49
2022/05/27 00:06:00;;;;;;;3.35;0.75;;;22.40;99.90;;;;;;5014464;28;20028;-49
2022/05/27 00:08:26;;;;;;;6.80;1.45;;;22.30;99.90;;;;;;5014565;28;20026;-48
2022/05/27 00:10:55;;;;;;;5.10;1.08;;;22.30;99.90;;;;;;5014579;28;20051;-49
2022/05/27 00:13:21;;;;;;;2.20;0.95;;;22.30;99.90;;;;;;5014440;28;20026;-49
2022/05/27 00:15:46;;;;;;;2.92;0.88;;;22.30;99.90;;;;;;5014337;28;20492;-49
2022/05/27 00:18:12;;;;;;;3.50;1.08;;;22.30;99.90;;;;;;5014235;28;20056;-49
2022/05/27 00:20:38;;;;;;;3.30;0.88;;;22.30;99.90;;;;;;5014297;28;20026;-49
2022/05/27 00:23:04;;;;;;;2.85;0.95;;;22.20;99.90;;;;;;5014353;28;20025;-49
2022/05/27 00:25:30;;;;;;;3.05;0.95;;;22.20;99.90;;;;;;5014136;28;20073;-49
2022/05/27 00:27:57;;;;;;;8.40;1.70;;;22.20;99.90;;;;;;5014017;28;20141;-48
2022/05/27 00:30:24;;;;;;;5.80;1.52;;;22.20;99.90;;;;;;5014228;28;20117;-48
2022/05/27 00:32:50;;;;;;;4.40;1.23;;;22.20;99.90;;;;;;5014185;28;20515;-48
2022/05/27 00:35:16;;;;;;;3.40;1.08;;;22.20;99.90;;;;;;5014026;28;20085;-48
2022/05/27 00:37:42;;;;;;;4.13;1.23;;;22.20;99.90;;;;;;5013999;28;20022;-48
2022/05/27 00:40:11;;;;;;;2.83;0.90;;;22.20;99.90;;;;;;5013806;28;20045;-48
2022/05/27 00:42:41;;;;;;;4.47;1.17;;;22.20;99.90;;;;;;5014087;28;20084;-48
2022/05/27 00:45:20;;;;;;;4.72;1.38;;;22.20;99.90;;;;;;5013914;28;20547;-48
2022/05/27 00:47:50;;;;;;;5.50;1.10;;;22.20;99.90;;;;;;5013727;28;20080;-48
2022/05/27 00:50:18;;;;;;;3.95;1.40;;;22.20;99.90;;;;;;5013692;28;20129;-48
2022/05/27 00:52:45;;;;;;;;;;;22.20;99.90;;;;;;5014188;28;20018;-49
2022/05/27 00:55:17;;;;;;;2.72;0.80;;;22.20;99.90;;;;;;5013675;28;19905;-48
2022/05/27 00:58:00;;;;;;;3.67;1.13;;;22.20;99.90;;;;;;5013788;28;20120;-49
2022/05/27 01:00:26;;;;;;;4.90;1.00;;;22.20;99.90;;;;;;5013989;28;20501;-49
2022/05/27 01:02:54;;;;;;;9.10;1.48;;;22.20;99.90;;;;;;5012450;28;20029;-49
2022/05/27 01:05:22;;;;;;;2.00;1.13;;;22.20;99.90;;;;;;5013489;28;20025;-49
2022/05/27 01:07:55;;;;;;;3.58;1.15;;;22.20;99.90;;;;;;5013511;28;20037;-49
2022/05/27 01:10:21;;;;;;;7.50;1.83;;;22.10;99.90;;;;;;5013242;28;20045;-49
2022/05/27 01:13:20;;;;;;;4.30;0.80;;;22.10;99.90;;;;;;5013200;28;20430;-49
2022/05/27 01:16:15;;;;;;;5.38;2.13;;;22.10;99.90;;;;;;5013260;28;20041;-49
2022/05/27 01:21:59;;;;;;;5.22;0.98;;;22.10;99.90;;;;;;5013460;28;20029;-49
2022/05/27 01:24:56;;;;;;;6.13;1.10;;;22.10;99.90;;;;;;5013220;28;20034;-49
2022/05/27 01:27:47;;;;;;;2.78;1.13;;;22.10;99.90;;;;;;5012915;28;20080;-49
2022/05/27 01:30:43;;;;;;;2.50;0.93;;;22.10;99.90;;;;;;5012667;28;20033;-48
2022/05/27 01:33:50;;;;;;;3.70;0.70;;;22.10;99.90;;;;;;5012448;28;20069;-48
2022/05/27 01:36:42;;;;;;;3.88;0.90;;;22.10;99.90;;;;;;4969126;28;20116;-48
2022/05/27 01:39:16;;;;;;;5.38;1.08;;;22.00;99.90;;;;;;4971366;28;20038;-48
2022/05/27 01:42:05;;;;;;;2.67;0.80;;;22.00;99.90;;;;;;5012736;28;20026;-48
2022/05/27 01:44:55;;;;;;;2.78;0.85;;;22.10;99.90;;;;;;5012639;28;20025;-48
2022/05/27 01:47:58;;;;;;;2.90;1.02;;;22.00;99.90;;;;;;5012544;28;20403;-48
2022/05/27 01:50:42;;;;;;;3.20;1.10;;;22.00;99.90;;;;;;5012657;28;20092;-48
2022/05/27 01:53:11;;;;;;;5.07;1.10;;;22.00;99.90;;;;;;5012562;28;20485;-47
2022/05/27 01:55:43;;;;;;;7.78;1.77;;;22.00;99.90;;;;;;5012589;28;20046;-47
2022/05/27 01:58:20;;;;;;;3.38;1.25;;;22.00;99.90;;;;;;5012326;28;20065;-48
2022/05/27 02:00:49;;;;;;;2.03;1.10;;;22.00;99.90;;;;;;5012780;28;20061;-47
2022/05/27 02:03:14;;;;;;;3.50;1.38;;;22.00;99.90;;;;;;5012293;28;20052;-48
2022/05/27 02:05:50;;;;;;;4.32;0.90;;;22.00;99.90;;;;;;5012258;28;20564;-47
2022/05/27 02:08:27;;;;;;;4.45;1.08;;;22.00;99.90;;;;;;5012183;28;20066;-48
2022/05/27 02:11:10;;;;;;;2.57;1.00;;;21.90;99.90;;;;;;5012155;28;20494;-48
2022/05/27 02:13:42;;;;;;;1.52;0.80;;;21.90;99.90;;;;;;5012164;28;20032;-48
2022/05/27 02:16:14;;;;;;;3.15;0.80;;;21.90;99.90;;;;;;5012043;28;20026;-48
2022/05/27 02:18:50;;;;;;;1.80;0.70;;;21.90;99.90;;;;;;5012088;28;20026;-48
2022/05/27 02:21:47;;;;;;;1.58;0.70;;;21.90;99.90;;;;;;5012179;28;20018;-48
2022/05/27 02:24:19;;;;;;;;;;;21.90;99.90;;;;;;5008564;28;20105;-48
2022/05/27 02:26:49;;;;;;;4.65;0.80;;;21.90;99.90;;;;;;5012122;28;20323;-48
2022/05/27 02:29:23;;;;;;;4.18;0.70;;;21.90;99.90;;;;;;5011972;28;20037;-48
2022/05/27 02:31:54;;;;;;;2.33;0.70;;;21.90;99.90;;;;;;5012120;28;20489;-48
2022/05/27 02:37:31;;;;;;;2.75;0.73;;;21.90;99.90;;;;;;5012177;28;20040;-48
2022/05/27 02:40:00;;;;;;;1.95;0.60;;;21.90;99.90;;;;;;5011925;28;20073;-48
2022/05/27 02:42:54;;;;;;;1.55;0.60;;;21.90;99.90;;;;;;5011610;28;20112;-49
2022/05/27 02:45:52;;;;;;;2.28;0.65;;;21.90;99.90;;;;;;5011604;28;20028;-48
2022/05/27 02:48:21;;;;;;;3.17;0.77;;;21.80;99.90;;;;;;5011647;28;20038;-48
2022/05/27 02:50:58;;;;;;;3.42;0.60;;;21.80;99.90;;;;;;5010620;28;20034;-48
2022/05/27 02:54:06;;;;;;;1.27;0.68;;;21.80;99.90;;;;;;5011611;28;20498;-48
2022/05/27 02:56:39;;;;;;;1.05;0.60;;;21.80;99.90;;;;;;4971415;28;20030;-48
2022/05/27 02:59:10;;;;;;;3.50;0.43;;;21.80;99.90;;;;;;5011907;28;20030;-48
2022/05/27 03:01:37;;;;;;;2.47;0.60;;;21.80;99.90;;;;;;5011375;28;20046;-48
2022/05/27 03:04:04;;;;;;;2.10;0.65;;;21.80;99.90;;;;;;5011452;28;20386;-47
2022/05/27 03:07:00;;;;;;;1.83;0.43;;;21.80;99.90;;;;;;5011757;28;20280;-48
2022/05/27 03:09:33;;;;;;;6.30;0.80;;;21.80;99.90;;;;;;5011298;28;20045;-48
2022/05/27 03:12:11;;;;;;;3.30;0.60;;;21.80;99.90;;;;;;5011686;28;20057;-47
2022/05/27 03:15:07;;;;;;;2.47;0.70;;;21.80;99.90;;;;;;5011404;28;20145;-49
2022/05/27 03:17:44;;;;;;;2.00;0.60;;;21.70;99.90;;;;;;5000192;28;20018;-46
2022/05/27 03:20:28;;;;;;;2.28;0.50;;;21.70;99.90;;;;;;5009034;28;20029;-47
2022/05/27 03:23:04;;;;;;;1.27;0.47;;;21.70;99.90;;;;;;5008979;28;20022;-47
2022/05/27 03:25:48;;;;;;;1.98;0.60;;;21.70;99.90;;;;;;5008999;28;20038;-48
2022/05/27 03:28:17;;;;;;;2.20;0.80;;;21.70;99.90;;;;;;5011079;28;20045;-48
2022/05/27 03:31:18;;;;;;;4.25;0.55;;;21.70;99.90;;;;;;5011195;28;20041;-47
2022/05/27 03:33:56;;;;;;;2.38;0.50;;;21.70;99.90;;;;;;5009605;28;20485;-48
2022/05/27 03:36:51;;;;;;;2.42;0.50;;;21.70;99.90;;;;;;5008132;28;20026;-48
2022/05/27 03:39:29;;;;;;;3.78;0.80;;;21.70;99.90;;;;;;4992655;28;20030;-48
2022/05/27 03:42:14;;;;;;;1.60;0.98;;;21.70;99.90;;;;;;5008702;28;20036;-48
2022/05/27 03:45:02;;;;;;;1.13;0.68;;;21.80;99.90;;;;;;5006198;28;20517;-48
2022/05/27 03:47:27;;;;;;;2.00;0.60;;;21.80;99.90;;;;;;5010015;28;20088;-48
2022/05/27 03:49:53;;;;;;;2.53;0.52;;;21.80;99.90;;;;;;5011019;28;20501;-48
2022/05/27 03:52:22;;;;;;;2.95;0.65;;;21.80;99.90;;;;;;5009062;28;20030;-48
2022/05/27 03:54:48;;;;;;;2.55;0.80;;;21.80;99.90;;;;;;5009960;28;20477;-48
2022/05/27 03:57:14;;;;;;;3.65;1.08;;;21.90;99.90;;;;;;5010661;28;20076;-48
2022/05/27 03:59:40;;;;;;;5.80;0.90;;;21.80;99.90;;;;;;5009383;28;20414;-48
2022/05/27 04:02:06;;;;;;;1.52;0.55;;;21.90;99.90;;;;;;5012343;28;20030;-48
2022/05/27 04:04:33;;;;;;;2.97;1.10;;;21.90;99.90;;;;;;5013061;28;20006;-48
2022/05/27 04:06:58;;;;;;;3.58;0.77;;;21.90;99.90;;;;;;5012806;28;20025;-48
2022/05/27 04:09:26;;;;;;;2.95;1.90;;;21.90;99.90;;;;;;5012709;28;20385;-48
2022/05/27 04:11:53;;;;;;;1.42;0.80;;;21.90;99.90;;;;;;5012951;28;20025;-48
2022/05/27 04:14:19;;;;;;;2.33;1.47;;;21.90;99.90;;;;;;5014030;28;20030;-48
2022/05/27 04:16:48;;;;;;;1.77;0.60;;;21.90;99.90;;;;;;5014319;28;20247;-48
2022/05/27 04:19:14;;;;;;;5.78;1.98;;;21.90;99.90;;;;;;5014302;28;20079;-48
2022/05/27 04:21:40;;;;;;;2.70;1.73;;;21.90;99.90;;;;;;5014142;28;20030;-48
2022/05/27 04:24:07;;;;;;;3.17;0.57;;;21.90;99.90;;;;;;5014169;28;20116;-48
2022/05/27 04:26:34;;;;;;;2.22;0.75;;;21.90;99.90;;;;;;5013174;28;20104;-48
2022/05/27 04:29:00;;;;;;;4.83;0.70;;;21.90;99.90;;;;;;5014107;28;20022;-48
2022/05/27 04:31:26;;;;;;;1.30;0.70;;;21.90;99.90;;;;;;5014100;28;20043;-48
2022/05/27 04:33:52;;;;;;;4.55;3.15;;;21.90;99.90;;;;;;5014131;28;20462;-48
2022/05/27 04:36:18;;;;;;;6.30;3.28;;;21.90;99.90;;;;;;5014135;28;20060;-47
2022/05/27 04:38:44;;;;;;;2.05;1.00;;;21.90;99.90;;;;;;5014024;28;20026;-48
2022/05/27 04:41:10;;;;;;;3.30;1.80;;;21.90;99.90;;;;;;5013812;28;20052;-48
2022/05/27 04:43:36;;;;;;;7.30;3.33;;;21.90;99.90;;;;;;5014123;28;20037;-48
2022/05/27 04:46:02;;;;;;;10.00;6.65;;;21.90;99.90;;;;;;5013773;28;20371;-48
2022/05/27 04:48:28;;;;;;;2.53;1.23;;;21.90;99.90;;;;;;5013575;28;20022;-48
2022/05/27 04:50:54;;;;;;;3.88;1.08;;;21.90;99.90;;;;;;5012414;28;20041;-48
2022/05/27 04:53:20;;;;;;;5.22;2.65;;;21.90;99.90;;;;;;5013708;28;20033;-48
2022/05/27 04:55:46;;;;;;;8.93;2.03;;;21.90;99.90;;;;;;5013541;28;20026;-48
2022/05/27 04:58:13;;;;;;;5.13;1.85;;;21.90;99.90;;;;;;5013503;28;20053;-48
2022/05/27 05:00:46;;;;;;;3.78;3.00;;;22.00;99.90;;;;;;5013175;28;20045;-47
2022/05/27 05:03:13;;;;;;;18.33;12.50;;;21.90;99.90;;;;;;5013512;28;20026;-48
2022/05/27 05:05:39;;;;;;;11.15;7.45;;;21.90;99.90;;;;;;5013198;28;20647;-47
2022/05/27 05:08:13;;;;;;;3.33;2.10;;;21.90;99.90;;;;;;5013472;28;20034;-47
2022/05/27 05:10:39;;;;;;;3.20;1.90;;;21.90;99.90;;;;;;5013234;28;20276;-48
2022/05/27 05:13:04;;;;;;;6.18;4.72;;;21.90;99.90;;;;;;5012552;28;20493;-47
2022/05/27 05:15:30;;;;;;;6.80;2.83;;;21.90;99.90;;;;;;5013345;28;20054;-48
2022/05/27 05:17:56;;;;;;;5.55;1.83;;;21.90;99.90;;;;;;5013108;28;20036;-48
2022/05/27 05:20:26;;;;;;;6.18;1.30;;;21.90;99.90;;;;;;5012996;28;20156;-47
2022/05/27 05:22:52;;;;;;;2.72;1.02;;;21.90;99.90;;;;;;5013285;28;20025;-48
2022/05/27 05:25:18;;;;;;;6.95;1.40;;;21.90;99.90;;;;;;5012997;28;20018;-48
2022/05/27 05:27:44;;;;;;;2.53;1.30;;;21.90;99.90;;;;;;5013012;28;20038;-48
2022/05/27 05:30:13;;;;;;;3.92;1.20;;;21.90;99.90;;;;;;5012852;28;20041;-47
2022/05/27 05:32:39;;;;;;;7.57;1.45;;;22.00;99.90;;;;;;5013056;28;20033;-48
2022/05/27 05:35:06;;;;;;;3.25;1.63;;;22.00;99.90;;;;;;5013020;28;20109;-47
2022/05/27 05:37:32;;;;;;;5.13;1.33;;;22.00;99.90;;;;;;5012769;28;20026;-48
2022/05/27 05:39:57;;;;;;;1.50;1.00;;;22.00;99.90;;;;;;5012751;28;20057;-48
2022/05/27 05:42:24;;;;;;;1.98;0.93;;;22.10;99.90;;;;;;5011387;28;20041;-48
2022/05/27 05:44:50;;;;;;;3.22;0.90;;;22.10;99.90;;;;;;5012682;28;20592;-48
2022/05/27 05:47:16;;;;;;;3.08;1.30;;;22.10;99.90;;;;;;5012663;28;20049;-48
2022/05/27 05:49:41;;;;;;;6.43;1.20;;;22.10;99.90;;;;;;5012544;28;20389;-48
2022/05/27 05:52:08;;;;;;;2.28;1.13;;;22.10;99.90;;;;;;5012540;28;20028;-48
2022/05/27 05:54:34;;;;;;;9.88;1.45;;;22.10;99.90;;;;;;5012396;28;20030;-48
2022/05/27 05:57:01;;;;;;;6.20;1.00;;;22.10;99.90;;;;;;5012468;28;20026;-48
2022/05/27 05:59:33;;;;;;;8.10;1.55;;;22.10;99.90;;;;;;5012294;28;20033;-48
2022/05/27 06:02:00;;;;;;;5.28;0.90;;;22.10;99.90;;;;;;5012160;28;20099;-48
2022/05/27 06:04:27;;;;;;;3.25;0.93;;;22.10;99.90;;;;;;5012331;28;20041;-48
2022/05/27 06:06:53;;;;;;;6.15;0.98;;;22.10;99.90;;;;;;5012319;28;20026;-48
2022/05/27 06:09:22;;;;;;;5.93;1.23;;;22.10;99.90;;;;;;5012218;28;20089;-48
2022/05/27 06:11:48;;;;;;;3.67;0.80;;;22.20;99.90;;;;;;5012103;28;20117;-47
2022/05/27 06:14:14;;;;;;;2.88;0.73;;;22.20;99.90;;;;;;5012025;28;20026;-47
2022/05/27 06:16:40;;;;;;;4.20;0.88;;;22.20;99.90;;;;;;5012134;28;20018;-47
2022/05/27 06:19:06;;;;;;;4.70;1.00;;;22.20;99.90;;;;;;5011981;28;20026;-48
2022/05/27 06:21:31;;;;;;;4.78;1.00;;;22.30;99.90;;;;;;5012016;28;20981;-47
2022/05/27 06:23:57;;;;;;;5.68;0.80;;;22.30;99.90;;;;;;5011851;28;20451;-48
2022/05/27 06:26:23;;;;;;;6.78;1.05;;;22.40;99.90;;;;;;5011900;28;20029;-47
2022/05/27 06:34:23;;;;;;;8.20;1.10;;;22.60;99.90;;;;;;5011962;28;20029;-47
2022/05/27 06:36:50;;;;;;;1.33;0.73;;;22.60;99.90;;;;;;5011785;28;20022;-47
2022/05/27 06:39:17;;;;;;;2.15;0.52;;;22.60;99.90;;;;;;5011760;28;20040;-48
2022/05/27 06:41:43;;;;;;;2.08;0.68;;;22.70;99.90;;;;;;5010685;28;20497;-49
2022/05/27 06:44:09;;;;;;;3.92;1.15;;;22.70;99.90;;;;;;5010614;28;20492;-47
2022/05/27 06:46:36;;;;;;;2.72;0.60;;;22.70;99.90;;;;;;5011575;28;20130;-47
2022/05/27 06:49:02;;;;;;;1.73;0.70;;;22.80;99.90;;;;;;5011472;28;20389;-48
2022/05/27 06:51:29;;;;;;;1.55;0.52;;;22.90;99.90;;;;;;5011507;28;20018;-48
2022/05/27 06:53:55;;;;;;;1.58;0.52;;;22.90;99.90;;;;;;5011540;28;20038;-48
2022/05/27 06:56:21;;;;;;;1.95;0.70;;;22.90;99.90;;;;;;5011412;28;20026;-48
2022/05/27 06:58:48;;;;;;;1.25;0.40;;;23.00;99.90;;;;;;5011314;28;20032;-47
2022/05/27 07:01:14;;;;;;;3.25;0.60;;;23.00;99.90;;;;;;5011452;28;20489;-48
2022/05/27 07:03:40;;;;;;;1.10;0.50;;;23.10;99.90;;;;;;5011443;28;20038;-48
2022/05/27 07:06:08;;;;;;;4.72;2.58;;;23.10;99.90;;;;;;5011334;28;20521;-48
2022/05/27 07:08:34;;;;;;;7.55;3.70;;;23.20;99.90;;;;;;5011328;28;20434;-48
2022/05/27 07:11:00;;;;;;;5.55;3.70;;;23.30;99.90;;;;;;5011143;28;20116;-48
2022/05/27 07:13:26;;;;;;;2.92;0.80;;;23.30;99.90;;;;;;5011205;28;20117;-48
2022/05/27 07:15:52;;;;;;;1.30;0.75;;;23.30;99.90;;;;;;5011370;28;20037;-48
2022/05/27 07:18:18;;;;;;;2.28;1.00;;;23.40;99.90;;;;;;5011064;28;20520;-48
2022/05/27 07:20:44;;;;;;;1.48;0.80;;;23.40;99.90;;;;;;5011419;28;20466;-48
2022/05/27 07:23:11;;;;;;;2.17;1.50;;;23.50;99.90;;;;;;5011261;28;20108;-48
2022/05/27 07:25:37;;;;;;;4.00;1.38;;;23.50;99.90;;;;;;5011202;28;20030;-49
2022/05/27 07:28:07;;;;;;;3.75;1.20;;;23.50;99.90;;;;;;5011110;28;20028;-49
2022/05/27 07:30:36;;;;;;;2.03;1.10;;;23.50;99.90;;;;;;5011062;28;20037;-49
2022/05/27 07:33:03;;;;;;;3.78;2.05;;;23.60;99.90;;;;;;5011116;28;20021;-49
2022/05/27 07:35:29;;;;;;;7.90;3.47;;;23.70;99.90;;;;;;5011175;28;20034;-49
2022/05/27 07:37:55;;;;;;;3.20;1.20;;;23.70;99.90;;;;;;5014910;28;20278;-49
2022/05/27 07:40:21;;;;;;;3.15;0.52;;;23.70;99.90;;;;;;5014834;28;20471;-49
2022/05/27 07:42:48;;;;;;;11.32;5.90;;;23.70;99.90;;;;;;5014785;28;20100;-49
2022/05/27 07:45:16;;;;;;;5.40;2.75;;;23.80;99.90;;;;;;5014925;28;20029;-49
2022/05/27 07:47:42;;;;;;;6.10;2.47;;;23.80;99.90;;;;;;5014854;28;20022;-49
2022/05/27 07:50:11;;;;;;;3.13;1.63;;;23.80;99.90;;;;;;5014524;28;20037;-49
2022/05/27 07:52:37;;;;;;;4.65;1.75;;;23.90;99.90;;;;;;5014924;28;20508;-49
2022/05/27 07:55:04;;;;;;;1.33;0.80;;;23.90;99.90;;;;;;5014545;28;20335;-49
2022/05/27 07:57:29;;;;;;;3.10;0.70;;;24.00;99.90;;;;;;5014563;28;20037;-50
2022/05/27 07:59:55;;;;;;;3.58;1.00;;;24.00;99.90;;;;;;5014413;28;20279;-50
2022/05/27 08:02:25;;;;;;;2.13;0.77;;;24.00;99.90;;;;;;5014370;28;20026;-47
2022/05/27 08:04:52;;;;;;;5.25;3.60;;;24.10;99.90;;;;;;5014552;28;20376;-50
2022/05/27 08:07:18;;;;;;;2.47;1.70;;;24.10;99.90;;;;;;5014345;28;20049;-50
2022/05/27 08:09:44;;;;;;;2.22;1.42;;;24.10;99.90;;;;;;5014540;28;20052;-47
2022/05/27 08:12:10;;;;;;;8.02;1.90;;;24.10;99.90;;;;;;5014226;28;20521;-48
2022/05/27 08:14:36;;;;;;;7.60;4.20;;;24.20;99.90;;;;;;5014423;28;20021;-48
2022/05/27 08:17:03;;;;;;;2.40;1.00;;;24.30;99.90;;;;;;5014239;28;20075;-48
2022/05/27 08:19:29;;;;;;;3.58;1.25;;;24.30;99.90;;;;;;5014001;28;20438;-48
2022/05/27 08:21:54;;;;;;;3.05;1.00;;;24.30;99.90;;;;;;5014031;28;20113;-48
2022/05/27 08:24:20;;;;;;;1.92;1.00;;;24.30;99.90;;;;;;5014003;28;20080;-49
2022/05/27 08:26:49;;;;;;;2.20;1.67;;;24.30;99.90;;;;;;5014356;28;20030;-48
2022/05/27 08:29:15;;;;;;;2.60;1.30;;;24.40;99.90;;;;;;5014190;28;20034;-48
2022/05/27 08:31:42;;;;;;;4.25;1.02;;;24.40;99.90;;;;;;5013762;28;20038;-48
2022/05/27 08:39:46;;;;;;;8.75;4.15;;;24.50;99.90;;;;;;5013974;28;20393;-48
2022/05/27 08:42:23;;;;;;;2.80;1.70;;;24.50;99.90;;;;;;5013724;28;20038;-48
2022/05/27 08:45:07;;;;;;;3.50;2.10;;;24.50;99.90;;;;;;5013879;28;20018;-48
2022/05/27 08:47:49;;;;;;;4.78;2.08;;;24.50;99.90;;;;;;5012304;28;20050;-48
2022/05/27 08:50:46;;;;;;;2.47;1.30;;;24.50;99.90;;;;;;5013455;28;20092;-48
2022/05/27 08:53:39;;;;;;;2.22;1.10;;;24.60;99.90;;;;;;5010860;28;20427;-48
2022/05/27 08:59:26;;;;;;;3.28;1.48;;;24.70;99.90;;;;;;5013760;28;20041;-49
2022/05/27 09:01:56;;;;;;;2.28;1.23;;;24.70;99.90;;;;;;5013303;28;20126;-48
2022/05/27 09:04:33;;;;;;;1.38;0.90;;;24.70;99.90;;;;;;5013321;28;20101;-49
2022/05/27 09:07:33;;;;;;;3.58;1.10;;;24.70;99.90;;;;;;5013288;28;20022;-49
2022/05/27 09:10:05;;;;;;;2.45;1.20;;;24.70;99.90;;;;;;5013020;28;20030;-49
2022/05/27 09:12:48;;;;;;;1.92;1.00;;;24.80;99.90;;;;;;5012021;28;20097;-49
2022/05/27 09:15:26;;;;;;;1.95;0.95;;;24.80;99.90;;;;;;5013031;28;20096;-49
2022/05/27 09:18:31;;;;;;;3.03;1.20;;;24.80;99.90;;;;;;5013141;28;20442;-49
2022/05/27 09:21:22;;;;;;;2.05;1.17;;;24.90;99.90;;;;;;5013036;28;20531;-49
2022/05/27 09:24:12;;;;;;;2.38;1.10;;;24.90;99.90;;;;;;5011757;28;20030;-49
2022/05/27 09:26:58;;;;;;;1.52;0.80;;;25.00;99.90;;;;;;5012891;28;20508;-49
2022/05/27 09:29:42;;;;;;;1.52;0.90;;;25.00;99.90;;;;;;5012911;28;20037;-49
2022/05/27 09:32:31;;;;;;;2.88;0.55;;;25.00;99.90;;;;;;5012761;28;20101;-48
2022/05/27 09:35:03;;;;;;;1.38;0.90;;;25.00;99.90;;;;;;5012769;28;20050;-49
2022/05/27 09:37:37;;;;;;;0.95;0.65;;;25.00;99.90;;;;;;5012685;28;20026;-49
2022/05/27 09:40:18;;;;;;;1.35;0.40;;;25.00;99.90;;;;;;5012625;28;20528;-49
2022/05/27 09:43:08;;;;;;;2.00;0.80;;;25.00;99.90;;;;;;5012652;28;20092;-49
2022/05/27 09:45:35;;;;;;;3.60;0.40;;;25.10;99.90;;;;;;5012544;28;20057;-49
2022/05/27 09:48:04;;;;;;;2.25;0.57;;;25.10;99.90;;;;;;5012454;28;20018;-49
2022/05/27 09:50:40;;;;;;;1.92;0.73;;;25.10;99.90;;;;;;5012443;28;20048;-52
2022/05/27 09:53:07;;;;;;;0.85;0.63;;;25.20;99.90;;;;;;5012301;28;20026;-49
2022/05/27 09:55:36;;;;;;;;;;;25.20;99.90;;;;;;5012834;28;20558;-49
2022/05/27 09:58:04;;;;;;;5.05;3.58;;;25.20;99.90;;;;;;5012363;28;19912;-49
2022/05/27 10:00:59;;;;;;;3.00;1.00;;;25.20;99.90;;;;;;5010507;28;20524;-49
2022/05/27 10:03:33;;;;;;;1.70;0.80;;;25.20;99.90;;;;;;5009074;28;20493;-49
2022/05/27 10:06:19;;;;;;;2.90;0.70;;;25.30;99.90;;;;;;5012175;28;20037;-49
2022/05/27 10:09:00;;;;;;;3.13;1.80;;;25.30;99.90;;;;;;5012028;28;20056;-49
2022/05/27 10:11:34;;;;;;;3.72;2.30;;;25.30;99.90;;;;;;5012099;28;20037;-49
2022/05/27 10:14:07;;;;;;;3.88;1.58;;;25.30;99.90;;;;;;5011961;28;20033;-49
2022/05/27 10:16:34;;;;;;;3.42;2.00;;;25.30;99.90;;;;;;5010809;28;20045;-49
2022/05/27 10:19:14;;;;;;;2.55;1.60;;;25.30;99.90;;;;;;5011865;28;20076;-49
2022/05/27 10:21:54;;;;;;;2.45;1.58;;;25.30;99.90;;;;;;5011856;28;20044;-49
2022/05/27 10:24:39;;;;;;;3.33;1.55;;;25.40;99.90;;;;;;5012045;28;20022;-49
2022/05/27 10:27:13;;;;;;;2.00;1.10;;;25.40;99.90;;;;;;5011835;28;20026;-49
2022/05/27 10:29:58;;;;;;;2.17;1.23;;;25.40;99.90;;;;;;5011656;28;20485;-49
2022/05/27 10:32:44;;;;;;;2.47;1.40;;;25.40;99.90;;;;;;5010760;28;20383;-49
2022/05/27 10:35:16;;;;;;;2.90;2.35;;;25.40;99.90;;;;;;5011829;28;20053;-49
2022/05/27 10:38:10;;;;;;;4.05;2.13;;;25.40;99.90;;;;;;5011703;28;20037;-49
2022/05/27 10:40:54;;;;;;;2.35;1.42;;;25.50;99.90;;;;;;5011752;28;20061;-49
2022/05/27 10:43:32;;;;;;;1.40;1.20;;;25.40;99.90;;;;;;5011780;28;20473;-47
2022/05/27 10:46:00;;;;;;;;;;;25.50;99.90;;;;;;5011899;28;20030;-47
2022/05/27 10:48:44;;;;;;;6.47;4.63;;;25.50;99.90;;;;;;5011472;28;19905;-47
2022/05/27 10:51:48;;;;;;;1.83;1.45;;;25.60;99.90;;;;;;5011457;28;20478;-50
2022/05/27 10:54:17;;;;;;;4.63;2.00;;;25.50;99.90;;;;;;5011500;28;20034;-50
2022/05/27 11:03:14;;;;;;;2.30;1.80;;;25.60;99.90;;;;;;5011661;28;20033;-48
2022/05/27 11:06:03;;;;;;;2.60;1.88;;;25.60;99.90;;;;;;5011375;28;20022;-49
2022/05/27 11:08:33;;;;;;;3.58;2.42;;;25.60;99.90;;;;;;5011347;28;20058;-49
2022/05/27 11:11:01;;;;;;;3.72;2.58;;;25.60;99.90;;;;;;5012466;28;20076;-50
2022/05/27 11:16:46;;;;;;;2.55;1.90;;;25.70;99.90;;;;;;5015510;28;20037;-49
2022/05/27 11:19:32;;;;;;;5.18;1.13;;;25.70;99.90;;;;;;5015303;28;20022;-49
2022/05/27 11:22:22;;;;;;;2.80;1.97;;;25.70;99.90;;;;;;5015324;28;20022;-49
2022/05/27 11:25:01;;;;;;;4.68;2.10;;;25.70;99.90;;;;;;5015366;28;20189;-50
2022/05/27 11:27:45;;;;;;;3.55;2.20;;;25.70;99.90;;;;;;5015327;28;20030;-50
2022/05/27 11:30:42;;;;;;;2.45;1.38;;;25.70;99.90;;;;;;5014897;28;20042;-49
2022/05/27 11:33:37;;;;;;;2.58;2.13;;;25.70;99.90;;;;;;5015147;28;20166;-49
2022/05/27 11:36:43;;;;;;;2.22;1.77;;;25.70;99.90;;;;;;5015084;28;20057;-49
2022/05/27 11:39:33;;;;;;;1.80;1.50;;;25.70;99.90;;;;;;5013719;28;20418;-49
2022/05/27 11:42:02;;;;;;;1.45;0.95;;;25.80;99.90;;;;;;5013606;28;20377;-49
2022/05/27 11:44:52;;;;;;;2.22;1.88;;;25.80;99.90;;;;;;5014847;28;20358;-49
2022/05/27 11:47:23;;;;;;;1.40;1.05;;;25.80;99.90;;;;;;5014803;28;20022;-50
2022/05/27 11:50:28;;;;;;;2.70;0.70;;;25.80;99.90;;;;;;5014582;28;20632;-49
2022/05/27 11:53:21;;;;;;;1.50;0.70;;;25.80;99.90;;;;;;4983815;28;20113;-49
2022/05/27 11:56:02;;;;;;;1.38;0.80;;;25.80;99.90;;;;;;5014544;28;20041;-48
2022/05/27 11:58:30;;;;;;;3.78;1.38;;;25.80;99.90;;;;;;5014540;28;20076;-49
2022/05/27 12:01:03;;;;;;;2.35;1.05;;;25.90;99.90;;;;;;5011810;28;20047;-49
2022/05/27 12:03:50;;;;;;;4.80;0.70;;;25.90;99.90;;;;;;5004341;28;20524;-49
2022/05/27 12:06:39;;;;;;;4.35;0.93;;;25.90;99.90;;;;;;4994929;28;20022;-48
2022/05/27 12:09:40;;;;;;;1.40;0.90;;;26.00;99.90;;;;;;4999169;28;20523;-49
2022/05/27 12:12:10;;;;;;;4.85;0.65;;;26.00;99.90;;;;;;5000732;28;20038;-49
2022/05/27 12:14:41;;;;;;;1.67;0.70;;;26.10;99.90;;;;;;5010518;28;20115;-49
2022/05/27 12:17:20;;;;;;;2.65;0.68;;;26.10;99.90;;;;;;5008015;28;20142;-48
2022/05/27 12:19:55;;;;;;;3.63;0.50;;;26.10;99.90;;;;;;5011930;28;20041;-49
2022/05/27 12:22:25;;;;;;;1.17;0.35;;;26.00;99.90;;;;;;5012073;28;20022;-48
2022/05/27 12:25:12;;;;;;;1.42;0.40;;;26.00;99.90;;;;;;5012507;28;20030;-48
2022/05/27 12:27:38;;;;;;;1.13;0.32;;;26.00;99.90;;;;;;5013469;28;20037;-49
2022/05/27 12:30:09;;;;;;;3.58;1.50;;;26.00;99.90;;;;;;5011943;28;21148;-49
2022/05/27 12:32:41;;;;;;;1.33;0.45;;;25.80;99.90;;;;;;5011150;28;20041;-49
2022/05/27 12:35:22;;;;;;;2.60;0.40;;;25.80;99.90;;;;;;5013500;28;20476;-49
2022/05/27 12:37:51;;;;;;;2.08;0.45;;;25.70;99.90;;;;;;5008671;28;20116;-48
2022/05/27 12:40:20;;;;;;;0.90;0.30;;;25.70;99.90;;;;;;5013888;28;20030;-49
2022/05/27 12:42:50;;;;;;;0.65;0.28;;;25.70;99.90;;;;;;5013833;28;20493;-49
2022/05/27 12:45:22;;;;;;;2.70;0.60;;;25.80;99.90;;;;;;5013728;28;20034;-49
2022/05/27 12:47:53;;;;;;;4.95;1.35;;;25.80;99.90;;;;;;5013715;28;20108;-48
2022/05/27 12:50:29;;;;;;;1.35;0.55;;;25.70;99.90;;;;;;5013654;28;20252;-48
2022/05/27 12:53:18;;;;;;;7.70;3.17;;;25.80;99.90;;;;;;5011494;28;20022;-48
2022/05/27 13:02:33;;;;;;;1.60;0.95;;;25.80;99.90;;;;;;4985042;28;20092;-49
2022/05/27 13:05:01;;;;;;;3.15;0.80;;;25.70;99.90;;;;;;5002894;28;20080;-49
2022/05/27 13:07:36;;;;;;;3.80;1.20;;;25.70;99.90;;;;;;5012719;28;20017;-49
2022/05/27 13:10:17;;;;;;;3.08;0.80;;;25.50;99.90;;;;;;5010801;28;20046;-48
2022/05/27 13:12:48;;;;;;;3.92;0.50;;;25.50;99.90;;;;;;5012641;28;20032;-49
2022/05/27 13:15:28;;;;;;;0.93;0.47;;;25.40;99.90;;;;;;5013030;28;20021;-49
2022/05/27 13:18:17;;;;;;;3.03;0.60;;;25.40;99.90;;;;;;5009318;28;20405;-49
2022/05/27 13:20:55;;;;;;;2.67;0.45;;;25.40;99.90;;;;;;5011520;28;20045;-48
2022/05/27 13:23:26;;;;;;;1.13;0.50;;;25.40;99.90;;;;;;5011203;28;20025;-48
2022/05/27 13:26:03;;;;;;;3.17;1.02;;;25.40;99.90;;;;;;5009946;28;20026;-48
2022/05/27 13:28:47;;;;;;;3.70;0.50;;;25.30;99.90;;;;;;5011535;28;20383;-48
2022/05/27 13:31:18;;;;;;;1.08;0.47;;;25.30;99.90;;;;;;5012819;28;20026;-48
2022/05/27 13:33:59;;;;;;;3.75;0.50;;;25.20;99.90;;;;;;5012018;28;20489;-48
2022/05/27 13:36:29;;;;;;;5.25;1.50;;;25.20;99.90;;;;;;5012846;28;20034;-48
2022/05/27 13:38:54;;;;;;;4.15;1.60;;;25.20;99.90;;;;;;5012858;28;20034;-48
2022/05/27 13:41:22;;;;;;;1.27;0.52;;;25.30;99.90;;;;;;5001975;28;20377;-48
2022/05/27 13:43:52;;;;;;;2.28;0.80;;;25.30;99.90;;;;;;4993786;28;20045;-48
2022/05/27 13:46:28;;;;;;;5.13;1.58;;;25.30;99.90;;;;;;4995373;28;20022;-48
2022/05/27 13:49:05;;;;;;;1.50;0.80;;;25.30;99.90;;;;;;4998925;28;20029;-48
2022/05/27 13:51:44;;;;;;;1.08;0.47;;;25.40;99.90;;;;;;4999853;28;20030;-48
2022/05/27 13:54:16;;;;;;;4.35;0.50;;;25.30;99.90;;;;;;4998186;28;20030;-48
2022/05/27 13:56:47;;;;;;;1.33;0.47;;;25.40;99.90;;;;;;5013667;28;20034;-48
2022/05/27 13:59:31;;;;;;;2.90;0.47;;;25.40;99.90;;;;;;5006199;28;20025;-49